sensor_id;sensor_type;location;lat;lon;timestamp;pressure;altitude;pressure_sealevel;temperature;humidity
42415;BME280;28058;46.344;17.786;2023-03-21T00:01:48;118336.50;;;-144.97;100.00
42415;BME280;28058;46.344;17.786;2023-03-21T00:04:14;118336.50;;;-144.97;100.00
42415;BME280;28058;46.344;17.786;2023-03-21T00:06:41;118336.50;;;-144.97;100.00
42415;BME280;28058;46.344;17.786;2023-03-21T00:09:08;118336.50;;;-144.97;100.00
42415;BME280;28058;46.344;17.786;2023-03-21T00:11:35;118336.50;;;-144.97;100.00
42415;BME280;28058;46.344;17.786;2023-03-21T00:14:02;118336.50;;;-144.97;100.00
42415;BME280;28058;46.344;17.786;2023-03-21T00:16:28;118336.50;;;-144.97;100.00
42415;BME280;28058;46.344;17.786;2023-03-21T00:19:01;118336.50;;;-144.97;100.00
42415;BME280;28058;46.344;17.786;2023-03-21T00:21:31;118336.50;;;-144.97;100.00
42415;BME280;28058;46.344;17.786;2023-03-21T00:24:17;118336.50;;;-144.97;100.00
42415;BME280;28058;46.344;17.786;2023-03-21T00:26:43;118336.50;;;-144.97;100.00
42415;BME280;28058;46.344;17.786;2023-03-21T00:29:10;118336.50;;;-144.97;100.00
42415;BME280;28058;46.344;17.786;2023-03-21T00:31:37;118336.50;;;-144.97;100.00
42415;BME280;28058;46.344;17.786;2023-03-21T00:34:03;118336.50;;;-144.97;100.00
42415;BME280;28058;46.344;17.786;2023-03-21T00:36:30;118336.50;;;-144.97;100.00
42415;BME280;28058;46.344;17.786;2023-03-21T00:38:57;118336.50;;;-144.97;100.00
42415;BME280;28058;46.344;17.786;2023-03-21T00:41:26;118336.50;;;-144.97;100.00
42415;BME280;28058;46.344;17.786;2023-03-21T00:44:08;118336.50;;;-144.97;100.00
42415;BME280;28058;46.344;17.786;2023-03-21T00:46:37;118336.50;;;-144.97;100.00
42415;BME280;28058;46.344;17.786;2023-03-21T00:49:23;118336.50;;;-144.97;100.00
42415;BME280;28058;46.344;17.786;2023-03-21T00:51:50;118336.50;;;-144.97;100.00
42415;BME280;28058;46.344;17.786;2023-03-21T00:54:17;118336.50;;;-144.97;100.00
42415;BME280;28058;46.344;17.786;2023-03-21T00:56:43;118336.50;;;-144.97;100.00
42415;BME280;28058;46.344;17.786;2023-03-21T00:59:10;118336.50;;;-144.97;100.00
42415;BME280;28058;46.344;17.786;2023-03-21T01:01:37;118336.50;;;-144.97;100.00
42415;BME280;28058;46.344;17.786;2023-03-21T01:04:03;118336.50;;;-144.97;100.00
42415;BME280;28058;46.344;17.786;2023-03-21T01:06:42;118336.50;;;-144.97;100.00
42415;BME280;28058;46.344;17.786;2023-03-21T01:09:19;118336.50;;;-144.97;100.00
42415;BME280;28058;46.344;17.786;2023-03-21T01:11:46;118336.50;;;-144.97;100.00
42415;BME280;28058;46.344;17.786;2023-03-21T01:14:14;118336.50;;;-144.97;100.00
42415;BME280;28058;46.344;17.786;2023-03-21T01:16:49;118336.50;;;-144.97;100.00
42415;BME280;28058;46.344;17.786;2023-03-21T01:19:17;118336.50;;;-144.97;100.00
42415;BME280;28058;46.344;17.786;2023-03-21T01:21:54;118336.50;;;-144.97;100.00
42415;BME280;28058;46.344;17.786;2023-03-21T01:24:21;118336.50;;;-144.97;100.00
42415;BME280;28058;46.344;17.786;2023-03-21T01:26:48;118336.50;;;-144.97;100.00
42415;BME280;28058;46.344;17.786;2023-03-21T01:29:15;118336.50;;;-144.97;100.00
42415;BME280;28058;46.344;17.786;2023-03-21T01:31:41;118336.50;;;-144.97;100.00
42415;BME280;28058;46.344;17.786;2023-03-21T01:34:08;118336.50;;;-144.97;100.00
42415;BME280;28058;46.344;17.786;2023-03-21T01:36:35;118336.50;;;-144.97;100.00
42415;BME280;28058;46.344;17.786;2023-03-21T01:39:02;118336.50;;;-144.97;100.00
42415;BME280;28058;46.344;17.786;2023-03-21T01:41:36;118336.50;;;-144.97;100.00
42415;BME280;28058;46.344;17.786;2023-03-21T01:44:14;118336.50;;;-144.97;100.00
42415;BME280;28058;46.344;17.786;2023-03-21T01:49:35;118336.50;;;-144.97;100.00
42415;BME280;28058;46.344;17.786;2023-03-21T01:52:05;118336.50;;;-144.97;100.00
42415;BME280;28058;46.344;17.786;2023-03-21T01:54:42;118336.50;;;-144.97;100.00
42415;BME280;28058;46.344;17.786;2023-03-21T01:57:20;118336.50;;;-144.97;100.00
42415;BME280;28058;46.344;17.786;2023-03-21T01:59:52;118336.50;;;-144.97;100.00
42415;BME280;28058;46.344;17.786;2023-03-21T02:02:21;118336.50;;;-144.97;100.00
42415;BME280;28058;46.344;17.786;2023-03-21T02:05:02;118336.50;;;-144.97;100.00
42415;BME280;28058;46.344;17.786;2023-03-21T02:07:30;118336.50;;;-144.97;100.00
42415;BME280;28058;46.344;17.786;2023-03-21T02:10:04;118336.50;;;-144.97;100.00
42415;BME280;28058;46.344;17.786;2023-03-21T02:12:33;118336.50;;;-144.97;100.00
42415;BME280;28058;46.344;17.786;2023-03-21T02:15:00;118336.50;;;-144.97;100.00
42415;BME280;28058;46.344;17.786;2023-03-21T02:28:09;118336.50;;;-144.97;100.00
42415;BME280;28058;46.344;17.786;2023-03-21T02:30:37;118336.50;;;-144.97;100.00
42415;BME280;28058;46.344;17.786;2023-03-21T02:43:51;118336.50;;;-144.97;100.00
42415;BME280;28058;46.344;17.786;2023-03-21T02:46:29;118336.50;;;-144.97;100.00
42415;BME280;28058;46.344;17.786;2023-03-21T02:49:13;118336.50;;;-144.97;100.00
42415;BME280;28058;46.344;17.786;2023-03-21T02:51:42;118336.50;;;-144.97;100.00
42415;BME280;28058;46.344;17.786;2023-03-21T02:54:12;118336.50;;;-144.97;100.00
42415;BME280;28058;46.344;17.786;2023-03-21T02:57:00;118336.50;;;-144.97;100.00
42415;BME280;28058;46.344;17.786;2023-03-21T02:59:29;118336.50;;;-144.97;100.00
42415;BME280;28058;46.344;17.786;2023-03-21T03:01:59;118336.50;;;-144.97;100.00
42415;BME280;28058;46.344;17.786;2023-03-21T03:04:26;118336.50;;;-144.97;100.00
42415;BME280;28058;46.344;17.786;2023-03-21T03:07:02;118336.50;;;-144.97;100.00
42415;BME280;28058;46.344;17.786;2023-03-21T03:12:06;118336.50;;;-144.97;100.00
42415;BME280;28058;46.344;17.786;2023-03-21T03:22:22;118336.50;;;-144.97;100.00
42415;BME280;28058;46.344;17.786;2023-03-21T03:24:54;118336.50;;;-144.97;100.00
42415;BME280;28058;46.344;17.786;2023-03-21T03:27:26;118336.50;;;-144.97;100.00
42415;BME280;28058;46.344;17.786;2023-03-21T03:29:56;118336.50;;;-144.97;100.00
42415;BME280;28058;46.344;17.786;2023-03-21T03:32:24;118336.50;;;-144.97;100.00
42415;BME280;28058;46.344;17.786;2023-03-21T03:34:52;118336.50;;;-144.97;100.00
42415;BME280;28058;46.344;17.786;2023-03-21T03:37:23;118336.50;;;-144.97;100.00
42415;BME280;28058;46.344;17.786;2023-03-21T03:39:56;118336.50;;;-144.97;100.00
42415;BME280;28058;46.344;17.786;2023-03-21T03:42:27;118336.50;;;-144.97;100.00
42415;BME280;28058;46.344;17.786;2023-03-21T03:44:56;118336.50;;;-144.97;100.00
42415;BME280;28058;46.344;17.786;2023-03-21T03:47:24;118336.50;;;-144.97;100.00
42415;BME280;28058;46.344;17.786;2023-03-21T03:50:04;118336.50;;;-144.97;100.00
42415;BME280;28058;46.344;17.786;2023-03-21T03:52:36;118336.50;;;-144.97;100.00
42415;BME280;28058;46.344;17.786;2023-03-21T03:55:20;118336.50;;;-144.97;100.00
42415;BME280;28058;46.344;17.786;2023-03-21T03:57:47;118336.50;;;-144.97;100.00
42415;BME280;28058;46.344;17.786;2023-03-21T04:00:15;118336.50;;;-144.97;100.00
42415;BME280;28058;46.344;17.786;2023-03-21T04:02:42;118336.50;;;-144.97;100.00
42415;BME280;28058;46.344;17.786;2023-03-21T04:05:10;118336.50;;;-144.97;100.00
42415;BME280;28058;46.344;17.786;2023-03-21T04:07:37;118336.50;;;-144.97;100.00
42415;BME280;28058;46.344;17.786;2023-03-21T04:10:04;118336.50;;;-144.97;100.00
42415;BME280;28058;46.344;17.786;2023-03-21T04:12:31;118336.50;;;-144.97;100.00
42415;BME280;28058;46.344;17.786;2023-03-21T04:14:57;118336.50;;;-144.97;100.00
42415;BME280;28058;46.344;17.786;2023-03-21T04:17:35;118336.50;;;-144.97;100.00
42415;BME280;28058;46.344;17.786;2023-03-21T04:20:04;118336.50;;;-144.97;100.00
42415;BME280;28058;46.344;17.786;2023-03-21T04:22:40;118336.50;;;-144.97;100.00
42415;BME280;28058;46.344;17.786;2023-03-21T04:25:07;118336.50;;;-144.97;100.00
42415;BME280;28058;46.344;17.786;2023-03-21T04:27:34;118336.50;;;-144.97;100.00
42415;BME280;28058;46.344;17.786;2023-03-21T04:30:02;118336.50;;;-144.97;100.00
42415;BME280;28058;46.344;17.786;2023-03-21T04:32:29;118336.50;;;-144.97;100.00
42415;BME280;28058;46.344;17.786;2023-03-21T04:34:59;118336.50;;;-144.97;100.00
42415;BME280;28058;46.344;17.786;2023-03-21T04:37:26;118336.50;;;-144.97;100.00
42415;BME280;28058;46.344;17.786;2023-03-21T04:39:53;118336.50;;;-144.97;100.00
42415;BME280;28058;46.344;17.786;2023-03-21T04:42:20;118336.50;;;-144.97;100.00
42415;BME280;28058;46.344;17.786;2023-03-21T04:44:47;118336.50;;;-144.97;100.00
42415;BME280;28058;46.344;17.786;2023-03-21T04:47:14;118336.50;;;-144.97;100.00
42415;BME280;28058;46.344;17.786;2023-03-21T04:49:42;118336.50;;;-144.97;100.00
42415;BME280;28058;46.344;17.786;2023-03-21T04:52:08;118336.50;;;-144.97;100.00
42415;BME280;28058;46.344;17.786;2023-03-21T04:54:35;118336.50;;;-144.97;100.00
42415;BME280;28058;46.344;17.786;2023-03-21T04:57:02;118336.50;;;-144.97;100.00
42415;BME280;28058;46.344;17.786;2023-03-21T04:59:30;118336.50;;;-144.97;100.00
42415;BME280;28058;46.344;17.786;2023-03-21T05:01:57;118336.50;;;-144.97;100.00
42415;BME280;28058;46.344;17.786;2023-03-21T05:04:24;118336.50;;;-144.97;100.00
42415;BME280;28058;46.344;17.786;2023-03-21T05:06:52;118336.50;;;-144.97;100.00
42415;BME280;28058;46.344;17.786;2023-03-21T05:09:19;118336.50;;;-144.97;100.00
42415;BME280;28058;46.344;17.786;2023-03-21T05:11:47;118336.50;;;-144.97;100.00
42415;BME280;28058;46.344;17.786;2023-03-21T05:14:16;118336.50;;;-144.97;100.00
42415;BME280;28058;46.344;17.786;2023-03-21T05:16:44;118336.50;;;-144.97;100.00
42415;BME280;28058;46.344;17.786;2023-03-21T05:19:14;118336.50;;;-144.97;100.00
42415;BME280;28058;46.344;17.786;2023-03-21T05:21:43;118336.50;;;-144.97;100.00
42415;BME280;28058;46.344;17.786;2023-03-21T05:24:12;118336.50;;;-144.97;100.00
42415;BME280;28058;46.344;17.786;2023-03-21T05:26:39;118336.50;;;-144.97;100.00
42415;BME280;28058;46.344;17.786;2023-03-21T05:29:07;118336.50;;;-144.97;100.00
42415;BME280;28058;46.344;17.786;2023-03-21T05:31:33;118336.50;;;-144.97;100.00
42415;BME280;28058;46.344;17.786;2023-03-21T05:34:01;118336.50;;;-144.97;100.00
42415;BME280;28058;46.344;17.786;2023-03-21T05:36:28;118336.50;;;-144.97;100.00
42415;BME280;28058;46.344;17.786;2023-03-21T05:38:55;118336.50;;;-144.97;100.00
42415;BME280;28058;46.344;17.786;2023-03-21T05:41:22;118336.50;;;-144.97;100.00
42415;BME280;28058;46.344;17.786;2023-03-21T05:43:48;118336.50;;;-144.97;100.00
42415;BME280;28058;46.344;17.786;2023-03-21T05:46:15;118336.50;;;-144.97;100.00
42415;BME280;28058;46.344;17.786;2023-03-21T05:48:41;118336.50;;;-144.97;100.00
42415;BME280;28058;46.344;17.786;2023-03-21T05:51:08;118336.50;;;-144.97;100.00
42415;BME280;28058;46.344;17.786;2023-03-21T05:53:35;118336.50;;;-144.97;100.00
42415;BME280;28058;46.344;17.786;2023-03-21T05:56:02;118336.50;;;-144.97;100.00
42415;BME280;28058;46.344;17.786;2023-03-21T05:58:29;118336.50;;;-144.97;100.00
42415;BME280;28058;46.344;17.786;2023-03-21T06:00:55;118336.50;;;-144.97;100.00
42415;BME280;28058;46.344;17.786;2023-03-21T06:03:23;118336.50;;;-144.97;100.00
42415;BME280;28058;46.344;17.786;2023-03-21T06:05:50;118336.50;;;-144.97;100.00
42415;BME280;28058;46.344;17.786;2023-03-21T06:08:16;118336.50;;;-144.97;100.00
42415;BME280;28058;46.344;17.786;2023-03-21T06:10:43;118336.50;;;-144.97;100.00
42415;BME280;28058;46.344;17.786;2023-03-21T06:13:10;118336.50;;;-144.97;100.00
42415;BME280;28058;46.344;17.786;2023-03-21T06:15:36;118336.50;;;-144.97;100.00
42415;BME280;28058;46.344;17.786;2023-03-21T06:18:04;118336.50;;;-144.97;100.00
42415;BME280;28058;46.344;17.786;2023-03-21T06:20:32;118336.50;;;-144.97;100.00
42415;BME280;28058;46.344;17.786;2023-03-21T06:22:59;118336.50;;;-144.97;100.00
42415;BME280;28058;46.344;17.786;2023-03-21T06:25:25;118336.50;;;-144.97;100.00
42415;BME280;28058;46.344;17.786;2023-03-21T06:27:52;118336.50;;;-144.97;100.00
42415;BME280;28058;46.344;17.786;2023-03-21T06:30:19;118336.50;;;-144.97;100.00
42415;BME280;28058;46.344;17.786;2023-03-21T06:32:46;118336.50;;;-144.97;100.00
42415;BME280;28058;46.344;17.786;2023-03-21T06:35:12;118336.50;;;-144.97;100.00
42415;BME280;28058;46.344;17.786;2023-03-21T06:37:39;118336.50;;;-144.97;100.00
42415;BME280;28058;46.344;17.786;2023-03-21T06:40:06;118336.50;;;-144.97;100.00
42415;BME280;28058;46.344;17.786;2023-03-21T06:42:34;118336.50;;;-144.97;100.00
42415;BME280;28058;46.344;17.786;2023-03-21T06:45:01;118336.50;;;-144.97;100.00
42415;BME280;28058;46.344;17.786;2023-03-21T06:47:28;118336.50;;;-144.97;100.00
42415;BME280;28058;46.344;17.786;2023-03-21T06:49:55;118336.50;;;-144.97;100.00
42415;BME280;28058;46.344;17.786;2023-03-21T06:52:22;118336.50;;;-144.97;100.00
42415;BME280;28058;46.344;17.786;2023-03-21T06:54:48;118336.50;;;-144.97;100.00
42415;BME280;28058;46.344;17.786;2023-03-21T06:57:16;118336.50;;;-144.97;96.82
42415;BME280;28058;46.344;17.786;2023-03-21T06:59:45;118336.50;;;-144.97;86.31
42415;BME280;28058;46.344;17.786;2023-03-21T07:02:12;118336.50;;;-144.97;76.74
42415;BME280;28058;46.344;17.786;2023-03-21T07:04:39;118336.50;;;-144.97;70.87
42415;BME280;28058;46.344;17.786;2023-03-21T07:07:06;118336.50;;;-144.97;68.38
42415;BME280;28058;46.344;17.786;2023-03-21T07:09:33;118336.50;;;-144.97;73.34
42415;BME280;28058;46.344;17.786;2023-03-21T07:11:59;118336.50;;;-144.97;81.83
42415;BME280;28058;46.344;17.786;2023-03-21T07:14:26;118336.50;;;-144.97;85.40
42415;BME280;28058;46.344;17.786;2023-03-21T07:16:53;118336.50;;;-144.97;87.58
42415;BME280;28058;46.344;17.786;2023-03-21T07:19:20;118336.50;;;-144.97;86.70
42415;BME280;28058;46.344;17.786;2023-03-21T07:21:46;118336.50;;;-144.97;85.05
42415;BME280;28058;46.344;17.786;2023-03-21T07:24:13;118336.50;;;-144.97;78.01
42415;BME280;28058;46.344;17.786;2023-03-21T07:26:40;118336.50;;;-144.97;73.20
42415;BME280;28058;46.344;17.786;2023-03-21T07:29:06;118336.50;;;-144.97;68.56
42415;BME280;28058;46.344;17.786;2023-03-21T07:31:33;118336.50;;;-144.97;66.05
42415;BME280;28058;46.344;17.786;2023-03-21T07:34:01;118336.50;;;-144.97;58.18
42415;BME280;28058;46.344;17.786;2023-03-21T07:36:27;118336.50;;;-144.97;51.71
42415;BME280;28058;46.344;17.786;2023-03-21T07:38:54;118336.50;;;-144.97;48.00
42415;BME280;28058;46.344;17.786;2023-03-21T07:41:21;118336.50;;;-144.97;47.18
42415;BME280;28058;46.344;17.786;2023-03-21T07:43:47;118336.50;;;-144.97;44.22
42415;BME280;28058;46.344;17.786;2023-03-21T07:46:14;118336.50;;;-144.97;44.43
42415;BME280;28058;46.344;17.786;2023-03-21T07:48:41;118336.50;;;-144.97;46.98
42415;BME280;28058;46.344;17.786;2023-03-21T07:51:08;118336.50;;;-144.97;45.43
42415;BME280;28058;46.344;17.786;2023-03-21T07:53:35;118336.50;;;-144.97;51.45
42415;BME280;28058;46.344;17.786;2023-03-21T07:56:02;118336.50;;;-144.97;45.76
42415;BME280;28058;46.344;17.786;2023-03-21T07:58:29;118336.50;;;-144.97;47.14
42415;BME280;28058;46.344;17.786;2023-03-21T08:00:57;118336.50;;;-144.97;51.76
42415;BME280;28058;46.344;17.786;2023-03-21T08:03:24;118336.50;;;-144.97;53.62
42415;BME280;28058;46.344;17.786;2023-03-21T08:05:54;118336.50;;;-144.97;47.61
42415;BME280;28058;46.344;17.786;2023-03-21T08:08:21;118336.50;;;-144.97;45.57
42415;BME280;28058;46.344;17.786;2023-03-21T08:10:48;118336.50;;;-144.97;42.75
42415;BME280;28058;46.344;17.786;2023-03-21T08:13:15;118336.50;;;-144.97;41.82
42415;BME280;28058;46.344;17.786;2023-03-21T08:15:42;118336.50;;;-144.97;43.73
42415;BME280;28058;46.344;17.786;2023-03-21T08:18:09;118336.50;;;-144.97;41.46
42415;BME280;28058;46.344;17.786;2023-03-21T08:20:36;118336.50;;;-144.97;40.02
42415;BME280;28058;46.344;17.786;2023-03-21T08:23:03;118336.50;;;-144.97;41.51
42415;BME280;28058;46.344;17.786;2023-03-21T08:25:30;118336.50;;;-144.97;43.52
42415;BME280;28058;46.344;17.786;2023-03-21T08:27:58;118336.50;;;-144.97;40.10
42415;BME280;28058;46.344;17.786;2023-03-21T08:30:27;118336.50;;;-144.97;39.92
42415;BME280;28058;46.344;17.786;2023-03-21T08:32:56;118336.50;;;-144.97;39.53
42415;BME280;28058;46.344;17.786;2023-03-21T08:35:26;118336.50;;;-144.97;38.50
42415;BME280;28058;46.344;17.786;2023-03-21T08:37:53;118336.50;;;-144.97;37.44
42415;BME280;28058;46.344;17.786;2023-03-21T08:40:20;118336.50;;;-144.97;37.16
42415;BME280;28058;46.344;17.786;2023-03-21T08:42:47;118336.50;;;-144.97;36.60
42415;BME280;28058;46.344;17.786;2023-03-21T08:45:15;118336.50;;;-144.97;35.67
42415;BME280;28058;46.344;17.786;2023-03-21T08:47:43;118336.50;;;-144.97;36.49
42415;BME280;28058;46.344;17.786;2023-03-21T08:50:12;118336.50;;;-144.97;37.22
42415;BME280;28058;46.344;17.786;2023-03-21T08:52:40;118336.50;;;-144.97;37.13
42415;BME280;28058;46.344;17.786;2023-03-21T08:55:08;118336.50;;;-144.97;37.14
42415;BME280;28058;46.344;17.786;2023-03-21T08:57:35;118336.50;;;-144.97;36.40
42415;BME280;28058;46.344;17.786;2023-03-21T09:00:06;118336.50;;;-144.97;36.54
42415;BME280;28058;46.344;17.786;2023-03-21T09:02:41;118336.50;;;-144.97;38.68
42415;BME280;28058;46.344;17.786;2023-03-21T09:05:09;118336.50;;;-144.97;40.76
42415;BME280;28058;46.344;17.786;2023-03-21T09:07:38;118336.50;;;-144.97;41.22
42415;BME280;28058;46.344;17.786;2023-03-21T09:10:08;118336.50;;;-144.97;39.49
42415;BME280;28058;46.344;17.786;2023-03-21T09:12:52;118336.50;;;-144.97;41.79
42415;BME280;28058;46.344;17.786;2023-03-21T09:15:21;118336.50;;;-144.97;44.40
42415;BME280;28058;46.344;17.786;2023-03-21T09:17:50;118336.50;;;-144.97;44.87
42415;BME280;28058;46.344;17.786;2023-03-21T09:20:21;118336.50;;;-144.97;44.74
42415;BME280;28058;46.344;17.786;2023-03-21T09:22:57;118336.50;;;-144.97;45.01
42415;BME280;28058;46.344;17.786;2023-03-21T09:25:24;118336.50;;;-144.97;44.21
42415;BME280;28058;46.344;17.786;2023-03-21T09:27:54;118336.50;;;-144.97;45.74
42415;BME280;28058;46.344;17.786;2023-03-21T09:30:22;118336.50;;;-144.97;46.32
42415;BME280;28058;46.344;17.786;2023-03-21T09:32:51;118336.50;;;-144.97;46.80
42415;BME280;28058;46.344;17.786;2023-03-21T09:35:19;118336.50;;;-144.97;48.02
42415;BME280;28058;46.344;17.786;2023-03-21T09:37:47;118336.50;;;-144.97;47.81
42415;BME280;28058;46.344;17.786;2023-03-21T09:46:12;118336.50;;;-144.97;50.70
42415;BME280;28058;46.344;17.786;2023-03-21T09:48:55;118336.50;;;-144.97;49.45
42415;BME280;28058;46.344;17.786;2023-03-21T09:51:39;118336.50;;;-144.97;47.75
42415;BME280;28058;46.344;17.786;2023-03-21T09:54:22;118336.50;;;-144.97;47.32
42415;BME280;28058;46.344;17.786;2023-03-21T09:56:53;118336.50;;;-144.97;47.48
42415;BME280;28058;46.344;17.786;2023-03-21T09:59:31;118336.50;;;-144.97;48.16
42415;BME280;28058;46.344;17.786;2023-03-21T10:05:05;118336.50;;;-144.97;49.88
42415;BME280;28058;46.344;17.786;2023-03-21T10:07:45;118336.50;;;-144.97;48.99
42415;BME280;28058;46.344;17.786;2023-03-21T10:10:20;118336.50;;;-144.97;48.37
42415;BME280;28058;46.344;17.786;2023-03-21T10:12:49;118336.50;;;-144.97;49.70
42415;BME280;28058;46.344;17.786;2023-03-21T10:15:20;118336.50;;;-144.97;48.66
42415;BME280;28058;46.344;17.786;2023-03-21T10:18:00;118336.50;;;-144.97;47.43
42415;BME280;28058;46.344;17.786;2023-03-21T10:20:35;118336.50;;;-144.97;46.73
42415;BME280;28058;46.344;17.786;2023-03-21T10:23:05;118336.50;;;-144.97;47.48
42415;BME280;28058;46.344;17.786;2023-03-21T10:25:36;118336.50;;;-144.97;47.13
42415;BME280;28058;46.344;17.786;2023-03-21T10:28:06;118336.50;;;-144.97;45.68
42415;BME280;28058;46.344;17.786;2023-03-21T10:30:38;118336.50;;;-144.97;44.35
42415;BME280;28058;46.344;17.786;2023-03-21T10:33:07;118336.50;;;-144.97;44.06
42415;BME280;28058;46.344;17.786;2023-03-21T10:35:37;118336.50;;;-144.97;44.35
42415;BME280;28058;46.344;17.786;2023-03-21T10:38:14;118336.50;;;-144.97;44.49
42415;BME280;28058;46.344;17.786;2023-03-21T10:40:43;118336.50;;;-144.97;43.90
42415;BME280;28058;46.344;17.786;2023-03-21T10:45:52;118336.50;;;-144.97;42.54
42415;BME280;28058;46.344;17.786;2023-03-21T10:48:20;118336.50;;;-144.97;42.62
42415;BME280;28058;46.344;17.786;2023-03-21T10:50:50;118336.50;;;-144.97;41.60
42415;BME280;28058;46.344;17.786;2023-03-21T10:53:31;118336.50;;;-144.97;42.72
42415;BME280;28058;46.344;17.786;2023-03-21T10:55:59;118336.50;;;-144.97;39.92
42415;BME280;28058;46.344;17.786;2023-03-21T10:58:30;118336.50;;;-144.97;39.64
42415;BME280;28058;46.344;17.786;2023-03-21T11:01:02;118336.50;;;-144.97;40.41
42415;BME280;28058;46.344;17.786;2023-03-21T11:03:38;118336.50;;;-144.97;41.03
42415;BME280;28058;46.344;17.786;2023-03-21T11:08:50;118336.50;;;-144.97;39.88
42415;BME280;28058;46.344;17.786;2023-03-21T11:11:24;118336.50;;;-144.97;39.25
42415;BME280;28058;46.344;17.786;2023-03-21T11:14:01;118336.50;;;-144.97;38.17
42415;BME280;28058;46.344;17.786;2023-03-21T11:19:14;118336.50;;;-144.97;38.27
42415;BME280;28058;46.344;17.786;2023-03-21T11:21:42;118336.50;;;-144.97;38.67
42415;BME280;28058;46.344;17.786;2023-03-21T11:24:16;118336.50;;;-144.97;38.14
42415;BME280;28058;46.344;17.786;2023-03-21T11:26:47;118336.50;;;-144.97;37.44
42415;BME280;28058;46.344;17.786;2023-03-21T11:32:21;118336.50;;;-144.97;37.43
42415;BME280;28058;46.344;17.786;2023-03-21T11:34:56;118336.50;;;-144.97;37.55
42415;BME280;28058;46.344;17.786;2023-03-21T11:38:23;118336.50;;;-144.97;37.56
42415;BME280;28058;46.344;17.786;2023-03-21T11:40:22;118336.50;;;-144.97;38.19
42415;BME280;28058;46.344;17.786;2023-03-21T11:43:00;118336.50;;;-144.97;37.04
42415;BME280;28058;46.344;17.786;2023-03-21T11:47:58;118336.50;;;-144.97;37.38
42415;BME280;28058;46.344;17.786;2023-03-21T11:50:35;118336.50;;;-144.97;37.87
42415;BME280;28058;46.344;17.786;2023-03-21T12:01:04;118336.50;;;-144.97;36.38
42415;BME280;28058;46.344;17.786;2023-03-21T12:03:57;118336.50;;;-144.97;35.95
42415;BME280;28058;46.344;17.786;2023-03-21T12:06:44;118336.50;;;-144.97;35.89
42415;BME280;28058;46.344;17.786;2023-03-21T12:12:24;118336.50;;;-144.97;36.17
42415;BME280;28058;46.344;17.786;2023-03-21T12:20:29;118336.50;;;-144.97;37.04
42415;BME280;28058;46.344;17.786;2023-03-21T12:23:02;118336.50;;;-144.97;37.00
42415;BME280;28058;46.344;17.786;2023-03-21T12:25:40;118336.50;;;-144.97;37.32
42415;BME280;28058;46.344;17.786;2023-03-21T12:31:43;118336.50;;;-144.97;37.41
42415;BME280;28058;46.344;17.786;2023-03-21T12:40:11;118336.50;;;-144.97;37.52
42415;BME280;28058;46.344;17.786;2023-03-21T12:45:38;118336.50;;;-144.97;36.84
42415;BME280;28058;46.344;17.786;2023-03-21T12:50:54;118336.50;;;-144.97;36.76
42415;BME280;28058;46.344;17.786;2023-03-21T12:53:55;118336.50;;;-144.97;37.24
42415;BME280;28058;46.344;17.786;2023-03-21T12:56:39;118336.50;;;-144.97;37.42
42415;BME280;28058;46.344;17.786;2023-03-21T12:59:24;118336.50;;;-144.97;38.30
42415;BME280;28058;46.344;17.786;2023-03-21T13:01:58;118336.50;;;-144.97;37.66
42415;BME280;28058;46.344;17.786;2023-03-21T13:04:35;118336.50;;;-144.97;38.11
42415;BME280;28058;46.344;17.786;2023-03-21T13:07:09;118336.50;;;-144.97;37.73
42415;BME280;28058;46.344;17.786;2023-03-21T13:09:40;118336.50;;;-144.97;37.88
42415;BME280;28058;46.344;17.786;2023-03-21T13:12:25;118336.50;;;-144.97;37.64
42415;BME280;28058;46.344;17.786;2023-03-21T13:18:14;118336.50;;;-144.97;36.59
42415;BME280;28058;46.344;17.786;2023-03-21T13:20:52;118336.50;;;-144.97;36.39
42415;BME280;28058;46.344;17.786;2023-03-21T13:23:21;118336.50;;;-144.97;36.51
42415;BME280;28058;46.344;17.786;2023-03-21T13:25:50;118336.50;;;-144.97;36.53
42415;BME280;28058;46.344;17.786;2023-03-21T13:28:28;118336.50;;;-144.97;36.80
42415;BME280;28058;46.344;17.786;2023-03-21T13:31:23;118336.50;;;-144.97;36.40
42415;BME280;28058;46.344;17.786;2023-03-21T13:33:57;118336.50;;;-144.97;36.62
42415;BME280;28058;46.344;17.786;2023-03-21T13:36:29;118336.50;;;-144.97;36.85
42415;BME280;28058;46.344;17.786;2023-03-21T13:39:01;118336.50;;;-144.97;36.54
42415;BME280;28058;46.344;17.786;2023-03-21T13:41:34;118336.50;;;-144.97;36.68
42415;BME280;28058;46.344;17.786;2023-03-21T13:56:55;118336.50;;;-144.97;35.86
42415;BME280;28058;46.344;17.786;2023-03-21T13:59:44;118336.50;;;-144.97;36.27
42415;BME280;28058;46.344;17.786;2023-03-21T14:02:21;118336.50;;;-144.97;36.26
42415;BME280;28058;46.344;17.786;2023-03-21T14:05:04;118336.50;;;-144.97;36.07
42415;BME280;28058;46.344;17.786;2023-03-21T14:07:41;118336.50;;;-144.97;35.94
42415;BME280;28058;46.344;17.786;2023-03-21T14:10:19;118336.50;;;-144.97;36.18
42415;BME280;28058;46.344;17.786;2023-03-21T14:12:48;118336.50;;;-144.97;36.14
42415;BME280;28058;46.344;17.786;2023-03-21T14:15:23;118336.50;;;-144.97;36.65
42415;BME280;28058;46.344;17.786;2023-03-21T14:17:56;118336.50;;;-144.97;37.26